createdAt,value
2017-10-27T10:10:53.593Z,1.70
2017-10-27T10:13:20.466Z,1.93
2017-10-27T10:15:47.278Z,1.43
2017-10-27T10:18:14.040Z,1.40
2017-10-27T10:20:40.904Z,1.57
2017-10-27T10:23:07.693Z,2.30
2017-10-27T10:25:34.517Z,2.03
2017-10-27T10:28:07.598Z,1.97
2017-10-27T10:30:34.410Z,1.60
2017-10-27T10:33:07.240Z,2.17
2017-10-27T10:35:38.161Z,1.93
2017-10-27T10:38:09.258Z,2.07
2017-10-27T10:40:36.052Z,1.83
2017-10-27T10:43:02.812Z,2.40
2017-10-27T10:45:29.684Z,2.17
2017-10-27T10:47:56.422Z,1.87
2017-10-27T10:50:23.180Z,2.00
2017-10-27T10:52:49.927Z,1.83
2017-10-27T10:55:16.767Z,1.83
2017-10-27T10:57:44.470Z,2.10
2017-10-27T11:00:11.258Z,2.30
2017-10-27T11:02:38.171Z,1.93
2017-10-27T11:05:05.055Z,1.73
2017-10-27T11:07:31.795Z,2.50
2017-10-27T11:09:58.644Z,2.47
2017-10-27T11:12:25.424Z,2.23
2017-10-27T11:14:52.195Z,2.10
2017-10-27T11:17:18.962Z,1.80
2017-10-27T11:19:45.726Z,2.27
2017-10-27T11:22:12.511Z,2.30
2017-10-27T11:24:39.294Z,2.30
2017-10-27T11:27:15.488Z,1.90
2017-10-27T11:29:42.432Z,2.13
2017-10-27T11:32:10.111Z,1.80
2017-10-27T11:34:39.104Z,2.57
2017-10-27T11:39:39.464Z,5.13
2017-10-27T11:42:06.520Z,2.37
2017-10-27T11:44:33.385Z,2.43
2017-10-27T11:47:00.214Z,2.00
2017-10-27T11:49:27.759Z,2.13
2017-10-27T11:51:54.799Z,1.60
2017-10-27T11:54:21.709Z,1.60
2017-10-27T11:56:48.655Z,1.53
2017-10-27T11:59:15.630Z,1.57
2017-10-27T12:01:42.459Z,2.73
2017-10-27T12:04:09.373Z,1.53
2017-10-27T12:06:36.217Z,1.30
2017-10-27T12:09:03.157Z,1.70
2017-10-27T12:11:30.285Z,1.70
2017-10-27T12:13:57.187Z,2.13
2017-10-27T12:16:31.396Z,1.80
2017-10-27T12:18:58.477Z,1.70
2017-10-27T12:21:25.585Z,1.77
2017-10-27T12:26:32.367Z,1.67
2017-10-27T12:31:31.520Z,1.27
2017-10-27T12:33:59.957Z,1.40
2017-10-27T12:36:31.475Z,1.40
2017-10-27T12:39:01.501Z,1.20
2017-10-27T12:41:28.391Z,1.60
2017-10-27T12:43:59.277Z,1.60
2017-10-27T12:46:26.156Z,1.50
2017-10-27T12:49:00.116Z,1.97
2017-10-27T12:51:27.127Z,1.77
2017-10-27T12:54:00.456Z,1.53
2017-10-27T12:56:29.073Z,1.80
2017-10-27T12:58:56.544Z,1.67
2017-10-27T13:01:24.402Z,1.97
2017-10-27T13:04:07.902Z,2.07
2017-10-27T13:06:35.231Z,2.07
2017-10-27T13:09:02.017Z,2.07
2017-10-27T13:11:28.955Z,1.83
2017-10-27T13:13:55.762Z,1.60
2017-10-27T13:16:22.600Z,1.30
2017-10-27T13:18:49.451Z,1.33
2017-10-27T13:21:16.232Z,1.73
2017-10-27T13:23:43.080Z,1.57
2017-10-27T13:28:41.085Z,2.23
2017-10-27T13:31:07.827Z,1.73
2017-10-27T13:33:34.606Z,1.70
2017-10-27T13:36:01.384Z,1.77
2017-10-27T13:38:28.158Z,1.60
2017-10-27T13:40:54.994Z,2.00
2017-10-27T13:43:21.832Z,1.57
2017-10-27T13:45:48.767Z,2.10
2017-10-27T13:48:15.716Z,1.77
2017-10-27T13:50:43.259Z,2.20
2017-10-27T13:53:11.039Z,1.50
2017-10-27T13:55:39.160Z,1.40
2017-10-27T13:58:06.023Z,2.00
2017-10-27T14:00:33.469Z,1.80
2017-10-27T14:03:01.019Z,1.70
2017-10-27T14:05:36.353Z,1.60
2017-10-27T14:08:03.152Z,1.80
2017-10-27T14:10:32.454Z,1.73
2017-10-27T14:12:59.286Z,2.10
2017-10-27T14:15:26.108Z,1.70
2017-10-27T14:23:18.079Z,1.80
2017-10-27T14:25:47.127Z,1.70
2017-10-27T14:44:04.856Z,2.27
2017-10-27T15:17:58.255Z,2.03
2017-10-27T15:20:25.335Z,1.60
2017-10-27T15:22:52.284Z,2.10
2017-10-27T15:25:19.782Z,2.13
2017-10-27T15:27:46.819Z,2.90
2017-10-27T15:30:13.954Z,2.37
2017-10-27T15:32:40.877Z,3.10
2017-10-27T15:40:51.328Z,2.57
2017-10-27T15:43:18.140Z,2.70
2017-10-27T15:45:44.962Z,2.97
2017-10-27T15:48:11.933Z,2.73
2017-10-27T15:50:38.756Z,2.40
2017-10-27T15:53:06.595Z,2.70
2017-10-27T15:55:33.680Z,2.57
2017-10-27T15:58:02.326Z,2.20
2017-10-27T16:10:14.148Z,2.60
2017-10-27T16:12:41.010Z,2.73
2017-10-27T16:15:07.764Z,2.37
2017-10-27T16:17:34.556Z,3.13
2017-10-27T16:20:01.387Z,2.70
2017-10-27T16:22:28.210Z,2.13
2017-10-27T16:24:55.086Z,2.67
2017-10-27T16:27:21.971Z,2.37
2017-10-27T16:29:48.840Z,2.30
2017-10-27T16:32:16.475Z,2.47
2017-10-27T16:34:43.266Z,2.33
2017-10-27T16:37:12.398Z,2.50
2017-10-27T16:39:39.241Z,2.70
2017-10-27T16:42:06.076Z,2.60
2017-10-27T16:44:34.533Z,2.13
2017-10-27T16:47:02.263Z,2.77
2017-10-27T16:49:35.874Z,2.70
2017-10-27T16:52:02.849Z,2.70
2017-10-27T16:54:29.677Z,2.60
2017-10-27T16:56:56.456Z,3.07
2017-10-27T16:59:23.238Z,2.23
2017-10-27T17:01:51.011Z,2.23
2017-10-27T17:04:17.895Z,3.13
2017-10-27T17:06:46.133Z,2.53
2017-10-27T17:09:15.425Z,2.70
2017-10-27T17:11:43.508Z,2.83
2017-10-27T17:16:55.294Z,2.30
2017-10-27T17:44:21.325Z,2.93
2017-10-27T18:30:30.484Z,4.50
2017-10-27T18:32:57.390Z,3.90
2017-10-27T18:35:24.298Z,3.67
2017-10-27T18:37:56.245Z,4.53
2017-10-27T18:40:30.330Z,4.13
2017-10-27T18:42:57.294Z,4.67
2017-10-27T19:11:24.839Z,3.97
2017-10-27T19:13:51.849Z,3.63
2017-10-27T19:16:20.899Z,3.47
2017-10-27T19:34:45.052Z,3.70
2017-10-27T19:42:24.173Z,3.53
2017-10-27T19:47:32.317Z,3.37
2017-10-27T19:58:03.643Z,4.23
2017-10-27T20:00:30.622Z,2.93
2017-10-27T20:02:57.539Z,3.00
2017-10-27T20:05:24.367Z,3.30
2017-10-27T20:07:51.174Z,2.93
2017-10-27T20:10:18.572Z,3.00
2017-10-27T20:12:45.429Z,3.10
2017-10-27T20:15:12.934Z,3.10
2017-10-27T20:17:45.461Z,3.00
2017-10-27T20:20:12.778Z,3.00
2017-10-27T20:22:39.573Z,2.93
2017-10-27T20:25:06.368Z,3.27
2017-10-27T20:27:33.248Z,3.33
2017-10-27T20:30:00.854Z,3.77
2017-10-27T20:32:27.640Z,3.53
2017-10-27T20:34:54.484Z,2.87
2017-10-27T20:37:21.230Z,4.00
2017-10-27T20:39:47.998Z,4.53
2017-10-27T20:42:14.801Z,3.90
2017-10-27T20:44:41.562Z,3.53
2017-10-27T20:47:08.355Z,3.90
2017-10-27T20:49:35.142Z,4.27
2017-10-27T20:52:04.808Z,3.80
2017-10-27T20:54:31.678Z,4.17
2017-10-27T20:56:58.571Z,3.90
2017-10-27T20:59:25.519Z,4.03
2017-10-27T21:01:52.329Z,5.17
2017-10-27T21:04:20.153Z,3.70
2017-10-27T21:06:47.649Z,5.00
2017-10-27T21:09:14.525Z,4.77
2017-10-27T21:11:41.285Z,4.43
2017-10-27T21:14:08.064Z,4.13
2017-10-27T21:16:34.834Z,4.93
2017-10-27T21:19:01.602Z,4.13
2017-10-27T21:21:28.501Z,4.23
2017-10-27T21:23:55.288Z,4.50
2017-10-27T21:26:22.037Z,4.97
2017-10-27T21:28:48.835Z,5.13
2017-10-27T21:31:15.589Z,4.87
2017-10-27T21:33:42.377Z,4.67
2017-10-27T21:36:09.885Z,5.23
2017-10-27T21:38:36.650Z,4.43
2017-10-27T21:41:03.430Z,3.93
2017-10-27T21:43:30.201Z,3.40
2017-10-27T21:45:56.998Z,3.43
2017-10-27T21:48:23.750Z,3.80
2017-10-27T21:50:50.561Z,3.37
2017-10-27T21:53:17.337Z,3.53
2017-10-27T21:55:44.074Z,2.97
2017-10-27T21:58:10.858Z,4.83
2017-10-27T22:00:37.612Z,3.80
2017-10-27T22:03:04.407Z,3.50
2017-10-27T22:05:31.180Z,3.00
2017-10-27T22:07:57.921Z,2.90
2017-10-27T22:10:24.705Z,3.07
2017-10-27T22:12:51.467Z,3.00
2017-10-27T22:15:18.201Z,2.50
2017-10-27T22:17:45.006Z,3.27
2017-10-27T22:20:11.758Z,3.13
2017-10-27T22:22:38.666Z,3.60
2017-10-27T22:25:05.419Z,2.50
2017-10-27T22:27:32.174Z,2.80
2017-10-27T22:29:58.935Z,2.97
2017-10-27T22:32:25.683Z,2.90
2017-10-27T22:34:52.464Z,3.07
2017-10-27T22:37:19.236Z,3.83
2017-10-27T22:39:45.999Z,2.67
2017-10-27T22:42:12.775Z,3.20
2017-10-27T22:44:39.515Z,3.13
2017-10-27T22:47:06.464Z,3.70
2017-10-27T22:49:33.238Z,2.77
2017-10-27T22:51:59.998Z,2.93
2017-10-27T22:54:26.764Z,2.50
2017-10-27T22:56:53.497Z,3.50
2017-10-27T22:59:20.265Z,3.77
2017-10-27T23:01:46.984Z,3.17
2017-10-27T23:04:13.717Z,3.43
2017-10-27T23:06:40.496Z,3.57
2017-10-27T23:09:07.230Z,3.60
2017-10-27T23:11:34.011Z,3.30
2017-10-27T23:14:00.737Z,3.73
2017-10-27T23:16:27.527Z,4.00
2017-10-27T23:18:54.267Z,4.17
2017-10-27T23:21:21.016Z,3.67
2017-10-27T23:23:47.792Z,3.77
2017-10-27T23:26:14.547Z,3.43
2017-10-27T23:28:41.319Z,4.23
2017-10-27T23:31:08.072Z,3.23
2017-10-27T23:33:34.927Z,3.47
2017-10-27T23:36:01.686Z,3.00
2017-10-27T23:38:28.483Z,3.13
2017-10-27T23:40:55.250Z,3.10
2017-10-27T23:43:21.977Z,2.43
2017-10-27T23:45:48.694Z,2.80
2017-10-27T23:48:15.447Z,2.80
2017-10-27T23:50:42.189Z,2.73
2017-10-27T23:53:08.961Z,2.77
2017-10-27T23:55:35.701Z,2.23
2017-10-27T23:58:02.419Z,2.30
